createdAt,value
2023-05-14T00:03:31.706Z,9
2023-05-14T00:08:15.978Z,9
2023-05-14T00:13:00.154Z,9
2023-05-14T00:17:44.248Z,9
2023-05-14T00:31:56.821Z,9
2023-05-14T00:36:40.916Z,9
2023-05-14T00:42:26.620Z,9
2023-05-14T00:47:10.741Z,9
2023-05-14T00:56:39.177Z,9
2023-05-14T01:01:23.285Z,9
2023-05-14T01:06:07.500Z,9
2023-05-14T01:10:51.622Z,9
2023-05-14T01:20:19.937Z,9
2023-05-14T01:29:48.279Z,9
2023-05-14T01:34:32.501Z,9
2023-05-14T01:39:16.708Z,9
2023-05-14T01:44:00.839Z,9
2023-05-14T01:48:45.041Z,9
2023-05-14T01:53:29.152Z,9
2023-05-14T01:58:13.382Z,9
2023-05-14T02:02:57.491Z,9
2023-05-14T02:07:41.695Z,9
2023-05-14T02:12:25.822Z,9
2023-05-14T02:17:10.023Z,9
2023-05-14T02:26:38.384Z,9
2023-05-14T02:31:22.586Z,9
2023-05-14T02:36:06.700Z,9
2023-05-14T02:40:50.976Z,9
2023-05-14T02:46:36.523Z,9
2023-05-14T02:56:04.867Z,9
2023-05-14T03:00:49.067Z,9
2023-05-14T03:05:33.283Z,13
2023-05-14T03:15:01.620Z,41
2023-05-14T03:33:58.303Z,333
2023-05-14T03:38:42.398Z,500
2023-05-14T03:43:26.614Z,700
2023-05-14T03:49:12.222Z,769
2023-05-14T03:53:56.444Z,1045
2023-05-14T04:03:24.755Z,1811
2023-05-14T04:08:08.976Z,2323
2023-05-14T04:22:21.447Z,2844
2023-05-14T04:27:05.650Z,3015
2023-05-14T04:31:49.757Z,3213
2023-05-14T04:36:33.973Z,3388
2023-05-14T04:50:46.520Z,3921
2023-05-14T04:55:30.849Z,4134
2023-05-14T05:09:43.396Z,4758
2023-05-14T05:14:27.549Z,5191
2023-05-14T05:19:11.725Z,5912
2023-05-14T05:28:40.064Z,8847
2023-05-14T05:38:08.411Z,10219
2023-05-14T05:42:52.536Z,9411
2023-05-14T05:53:22.354Z,9549
2023-05-14T05:58:06.568Z,9374
2023-05-14T06:02:50.674Z,8941
2023-05-14T06:07:34.908Z,9075
2023-05-14T06:12:19.121Z,9441
2023-05-14T06:21:47.450Z,10753
2023-05-14T06:26:31.567Z,11813
2023-05-14T06:35:59.896Z,13222
2023-05-14T06:40:44.117Z,15308
2023-05-14T06:45:28.227Z,17476
2023-05-14T07:00:42.271Z,16743
2023-05-14T07:05:26.385Z,17878
2023-05-14T07:14:54.811Z,19934
2023-05-14T07:24:23.167Z,22843
2023-05-14T07:29:07.274Z,22465
2023-05-14T07:38:35.619Z,23241
2023-05-14T07:43:19.820Z,22802
2023-05-14T07:48:03.932Z,20506
2023-05-14T07:52:48.138Z,19792
2023-05-14T07:57:32.359Z,19836
2023-05-14T08:02:16.473Z,21234
2023-05-14T08:07:00.691Z,20484
2023-05-14T08:11:44.818Z,22627
2023-05-14T08:21:13.140Z,29515
2023-05-14T08:25:57.408Z,29233
2023-05-14T08:40:09.852Z,39343
2023-05-14T08:44:54.053Z,39314
2023-05-14T08:49:38.285Z,41442
2023-05-14T08:54:22.388Z,32998
2023-05-14T09:00:08.060Z,25666
2023-05-14T09:04:52.175Z,32203
2023-05-14T09:09:36.403Z,35816
2023-05-14T09:19:04.720Z,58350
2023-05-14T09:23:48.842Z,18467
2023-05-14T09:28:33.056Z,36646
2023-05-14T09:33:17.173Z,22870
2023-05-14T09:38:01.422Z,30276
2023-05-14T09:42:45.500Z,12343
2023-05-14T09:47:29.815Z,41693
2023-05-14T09:52:13.933Z,31935
2023-05-14T09:56:58.105Z,41861
2023-05-14T10:02:43.762Z,20732
2023-05-14T10:07:27.876Z,45374
2023-05-14T10:12:12.108Z,4257
2023-05-14T10:16:56.297Z,52454
2023-05-14T10:21:40.464Z,20963
2023-05-14T10:26:24.596Z,17555
2023-05-14T10:31:08.786Z,25974
2023-05-14T10:40:37.101Z,49954
2023-05-14T10:45:21.235Z,27455
2023-05-14T10:50:05.427Z,48262
2023-05-14T10:54:49.640Z,45954
2023-05-14T10:59:33.770Z,48937
2023-05-14T11:09:02.130Z,18046
2023-05-14T11:13:46.367Z,42819
2023-05-14T11:18:30.425Z,39625
2023-05-14T11:23:14.840Z,33820
2023-05-14T11:32:43.190Z,28697
2023-05-14T11:37:27.291Z,34368
2023-05-14T11:42:11.508Z,36056
2023-05-14T11:46:55.626Z,34656
2023-05-14T11:56:23.950Z,32800
2023-05-14T12:01:08.483Z,29312
2023-05-14T12:05:52.701Z,26387
2023-05-14T12:10:36.915Z,22763
2023-05-14T12:15:21.050Z,20441
2023-05-14T12:20:05.243Z,19324
2023-05-14T12:24:49.397Z,20257
2023-05-14T12:29:33.467Z,20579
2023-05-14T12:34:17.685Z,21550
2023-05-14T12:48:30.233Z,22570
2023-05-14T12:53:14.370Z,23613
2023-05-14T12:57:58.610Z,25441
2023-05-14T13:07:26.893Z,27254
2023-05-14T13:16:55.231Z,17379
2023-05-14T13:26:23.560Z,16676
2023-05-14T13:31:07.776Z,19606
2023-05-14T13:35:51.890Z,20892
2023-05-14T13:40:36.102Z,19797
2023-05-14T13:45:20.231Z,19600
2023-05-14T13:50:04.596Z,21652
2023-05-14T13:54:48.552Z,20778
2023-05-14T13:59:32.939Z,21261
2023-05-14T14:09:01.114Z,18573
2023-05-14T14:13:45.353Z,18468
2023-05-14T14:18:29.592Z,16821
2023-05-14T14:23:13.824Z,18788
2023-05-14T14:37:26.172Z,20516
2023-05-14T14:42:10.323Z,19216
2023-05-14T14:46:54.451Z,16932
2023-05-14T14:51:38.676Z,9151
2023-05-14T14:56:22.772Z,11057
2023-05-14T15:01:07.041Z,16960
2023-05-14T15:05:51.146Z,21567
2023-05-14T15:10:35.410Z,25623
2023-05-14T15:15:19.539Z,25493
2023-05-14T15:20:03.675Z,23985
2023-05-14T15:29:31.985Z,20235
2023-05-14T15:34:16.207Z,17758
2023-05-14T15:39:00.353Z,17596
2023-05-14T15:48:28.650Z,16382
2023-05-14T15:53:12.952Z,16476
2023-05-14T15:58:58.475Z,18915
2023-05-14T16:03:42.690Z,21433
2023-05-14T16:08:26.919Z,20440
2023-05-14T16:13:11.092Z,18796
2023-05-14T16:17:55.239Z,17123
2023-05-14T16:22:39.363Z,12816
2023-05-14T16:32:07.684Z,14461
2023-05-14T16:36:51.901Z,14662
2023-05-14T16:41:36.036Z,13069
2023-05-14T16:46:20.227Z,15052
2023-05-14T16:55:48.552Z,26843
2023-05-14T17:01:34.166Z,22284
2023-05-14T17:06:18.394Z,21238
2023-05-14T17:11:02.593Z,17189
2023-05-14T17:25:15.034Z,13627
2023-05-14T17:29:59.260Z,11486
2023-05-14T17:39:27.585Z,9629
2023-05-14T17:44:11.701Z,8021
2023-05-14T17:58:24.376Z,3634
2023-05-14T18:03:08.486Z,3085
2023-05-14T18:12:36.875Z,2837
2023-05-14T18:22:05.173Z,1930
2023-05-14T18:26:49.268Z,1482
2023-05-14T18:31:33.505Z,1208
2023-05-14T18:36:17.600Z,958
2023-05-14T18:41:01.812Z,739
2023-05-14T18:45:45.968Z,524
2023-05-14T18:55:14.394Z,204
2023-05-14T18:59:58.602Z,122
2023-05-14T19:14:11.104Z,24
2023-05-14T19:23:39.556Z,12
2023-05-14T19:33:07.827Z,9
2023-05-14T19:42:36.167Z,9
2023-05-14T19:47:20.405Z,9
2023-05-14T19:52:04.566Z,9
2023-05-14T20:01:32.794Z,9
2023-05-14T20:06:17.022Z,9
2023-05-14T20:11:01.314Z,9
2023-05-14T20:15:45.304Z,9
2023-05-14T20:25:13.567Z,9
2023-05-14T20:29:57.964Z,9
2023-05-14T20:34:42.011Z,9
2023-05-14T20:39:26.238Z,9
2023-05-14T20:48:54.606Z,9
2023-05-14T20:53:38.792Z,9
2023-05-14T20:58:22.934Z,9
2023-05-14T21:03:06.993Z,9
2023-05-14T21:07:51.348Z,9
2023-05-14T21:17:19.673Z,9
2023-05-14T21:31:32.146Z,9
2023-05-14T21:36:16.422Z,9
2023-05-14T21:41:00.518Z,9
2023-05-14T21:50:28.680Z,9
2023-05-14T21:55:12.979Z,9
2023-05-14T21:59:57.022Z,9
2023-05-14T22:04:41.226Z,9
2023-05-14T22:09:25.412Z,9
2023-05-14T22:18:53.750Z,9
2023-05-14T22:23:37.853Z,9
2023-05-14T22:33:06.223Z,9
2023-05-14T22:37:50.438Z,9
2023-05-14T22:42:34.521Z,9
2023-05-14T22:47:18.786Z,9
2023-05-14T22:52:02.952Z,9
2023-05-14T22:56:47.070Z,9
2023-05-14T23:06:15.468Z,9
2023-05-14T23:10:59.684Z,9
2023-05-14T23:15:43.898Z,9
2023-05-14T23:20:27.954Z,9
2023-05-14T23:25:12.230Z,9
2023-05-14T23:29:56.350Z,9
2023-05-14T23:34:40.532Z,9
2023-05-14T23:39:24.613Z,9
2023-05-14T23:44:08.828Z,9
2023-05-14T23:48:52.941Z,9
2023-05-14T23:53:37.149Z,9
2023-05-14T23:58:21.359Z,9
